sensor_id;sensor_type;location;lat;lon;timestamp;P1;durP1;ratioP1;P2;durP2;ratioP2
9834;SDS011;4956;50.996;13.716;2023-04-03T00:01:52;3.22;;;1.23;;
9834;SDS011;4956;50.996;13.716;2023-04-03T00:05:12;5.13;;;1.35;;
9834;SDS011;4956;50.996;13.716;2023-04-03T00:08:32;3.65;;;1.35;;
9834;SDS011;4956;50.996;13.716;2023-04-03T00:11:52;4.13;;;1.50;;
9834;SDS011;4956;50.996;13.716;2023-04-03T00:15:13;4.80;;;1.25;;
9834;SDS011;4956;50.996;13.716;2023-04-03T00:18:39;4.75;;;1.50;;
9834;SDS011;4956;50.996;13.716;2023-04-03T00:21:59;3.90;;;1.27;;
9834;SDS011;4956;50.996;13.716;2023-04-03T00:25:20;3.20;;;1.38;;
9834;SDS011;4956;50.996;13.716;2023-04-03T00:28:40;3.53;;;1.10;;
9834;SDS011;4956;50.996;13.716;2023-04-03T00:32:01;3.83;;;1.25;;
9834;SDS011;4956;50.996;13.716;2023-04-03T00:35:21;3.50;;;1.38;;
9834;SDS011;4956;50.996;13.716;2023-04-03T00:38:42;3.70;;;1.50;;
9834;SDS011;4956;50.996;13.716;2023-04-03T00:42:03;5.25;;;1.35;;
9834;SDS011;4956;50.996;13.716;2023-04-03T00:45:25;4.43;;;1.33;;
9834;SDS011;4956;50.996;13.716;2023-04-03T00:48:49;6.85;;;1.40;;
9834;SDS011;4956;50.996;13.716;2023-04-03T00:52:11;5.63;;;1.60;;
9834;SDS011;4956;50.996;13.716;2023-04-03T00:55:35;4.25;;;1.40;;
9834;SDS011;4956;50.996;13.716;2023-04-03T00:59:01;3.50;;;1.15;;
9834;SDS011;4956;50.996;13.716;2023-04-03T01:02:23;6.07;;;1.73;;
9834;SDS011;4956;50.996;13.716;2023-04-03T01:05:45;4.10;;;1.38;;
9834;SDS011;4956;50.996;13.716;2023-04-03T01:09:05;4.95;;;1.27;;
9834;SDS011;4956;50.996;13.716;2023-04-03T01:12:33;3.70;;;1.08;;
9834;SDS011;4956;50.996;13.716;2023-04-03T01:15:57;3.40;;;1.50;;
9834;SDS011;4956;50.996;13.716;2023-04-03T01:19:21;5.70;;;1.65;;
9834;SDS011;4956;50.996;13.716;2023-04-03T01:26:27;5.95;;;1.58;;
9834;SDS011;4956;50.996;13.716;2023-04-03T01:29:48;3.50;;;1.50;;
9834;SDS011;4956;50.996;13.716;2023-04-03T01:33:08;4.10;;;1.50;;
9834;SDS011;4956;50.996;13.716;2023-04-03T01:36:29;4.47;;;1.60;;
9834;SDS011;4956;50.996;13.716;2023-04-03T01:39:51;5.20;;;1.42;;
9834;SDS011;4956;50.996;13.716;2023-04-03T01:43:11;3.72;;;1.50;;
9834;SDS011;4956;50.996;13.716;2023-04-03T01:46:32;3.97;;;1.42;;
9834;SDS011;4956;50.996;13.716;2023-04-03T01:49:52;7.57;;;1.65;;
9834;SDS011;4956;50.996;13.716;2023-04-03T01:53:13;4.70;;;1.65;;
9834;SDS011;4956;50.996;13.716;2023-04-03T01:56:33;2.65;;;1.50;;
9834;SDS011;4956;50.996;13.716;2023-04-03T01:59:53;4.82;;;1.50;;
9834;SDS011;4956;50.996;13.716;2023-04-03T02:03:14;4.85;;;1.40;;
9834;SDS011;4956;50.996;13.716;2023-04-03T02:06:35;4.18;;;1.63;;
9834;SDS011;4956;50.996;13.716;2023-04-03T02:09:55;5.40;;;1.80;;
9834;SDS011;4956;50.996;13.716;2023-04-03T02:13:16;3.97;;;1.67;;
9834;SDS011;4956;50.996;13.716;2023-04-03T02:16:38;4.50;;;1.40;;
9834;SDS011;4956;50.996;13.716;2023-04-03T02:19:59;4.05;;;1.60;;
9834;SDS011;4956;50.996;13.716;2023-04-03T02:23:19;4.63;;;1.75;;
9834;SDS011;4956;50.996;13.716;2023-04-03T02:26:40;2.13;;;1.20;;
9834;SDS011;4956;50.996;13.716;2023-04-03T02:30:00;7.13;;;1.52;;
9834;SDS011;4956;50.996;13.716;2023-04-03T02:33:20;4.30;;;1.58;;
9834;SDS011;4956;50.996;13.716;2023-04-03T02:36:41;6.30;;;1.60;;
9834;SDS011;4956;50.996;13.716;2023-04-03T02:40:04;5.00;;;1.67;;
9834;SDS011;4956;50.996;13.716;2023-04-03T02:43:25;4.30;;;1.65;;
9834;SDS011;4956;50.996;13.716;2023-04-03T02:46:45;3.70;;;1.40;;
9834;SDS011;4956;50.996;13.716;2023-04-03T02:50:05;3.95;;;1.60;;
9834;SDS011;4956;50.996;13.716;2023-04-03T02:53:26;3.53;;;1.30;;
9834;SDS011;4956;50.996;13.716;2023-04-03T02:56:47;6.05;;;1.50;;
9834;SDS011;4956;50.996;13.716;2023-04-03T03:00:07;4.68;;;1.50;;
9834;SDS011;4956;50.996;13.716;2023-04-03T03:03:29;3.88;;;1.58;;
9834;SDS011;4956;50.996;13.716;2023-04-03T03:06:49;6.78;;;1.55;;
9834;SDS011;4956;50.996;13.716;2023-04-03T03:10:10;3.95;;;1.77;;
9834;SDS011;4956;50.996;13.716;2023-04-03T03:13:31;7.30;;;1.65;;
9834;SDS011;4956;50.996;13.716;2023-04-03T03:16:52;4.88;;;1.40;;
9834;SDS011;4956;50.996;13.716;2023-04-03T03:20:12;6.93;;;1.60;;
9834;SDS011;4956;50.996;13.716;2023-04-03T03:23:34;4.95;;;1.30;;
9834;SDS011;4956;50.996;13.716;2023-04-03T03:26:54;5.85;;;1.80;;
9834;SDS011;4956;50.996;13.716;2023-04-03T03:30:15;4.07;;;1.38;;
9834;SDS011;4956;50.996;13.716;2023-04-03T03:33:35;6.45;;;1.42;;
9834;SDS011;4956;50.996;13.716;2023-04-03T03:36:56;4.72;;;1.48;;
9834;SDS011;4956;50.996;13.716;2023-04-03T03:40:16;4.35;;;1.60;;
9834;SDS011;4956;50.996;13.716;2023-04-03T03:43:36;4.18;;;1.50;;
9834;SDS011;4956;50.996;13.716;2023-04-03T03:46:59;4.13;;;1.45;;
9834;SDS011;4956;50.996;13.716;2023-04-03T03:50:20;3.28;;;1.15;;
9834;SDS011;4956;50.996;13.716;2023-04-03T03:53:40;4.32;;;1.25;;
9834;SDS011;4956;50.996;13.716;2023-04-03T03:57:06;4.35;;;1.40;;
9834;SDS011;4956;50.996;13.716;2023-04-03T04:00:26;4.85;;;1.40;;
9834;SDS011;4956;50.996;13.716;2023-04-03T04:03:49;4.00;;;1.75;;
9834;SDS011;4956;50.996;13.716;2023-04-03T04:07:14;4.85;;;1.45;;
9834;SDS011;4956;50.996;13.716;2023-04-03T04:10:35;5.28;;;1.63;;
9834;SDS011;4956;50.996;13.716;2023-04-03T04:13:56;5.60;;;1.40;;
9834;SDS011;4956;50.996;13.716;2023-04-03T04:17:19;3.35;;;1.42;;
9834;SDS011;4956;50.996;13.716;2023-04-03T04:20:41;5.88;;;1.73;;
9834;SDS011;4956;50.996;13.716;2023-04-03T04:24:02;6.15;;;1.77;;
9834;SDS011;4956;50.996;13.716;2023-04-03T04:27:23;7.85;;;1.73;;
9834;SDS011;4956;50.996;13.716;2023-04-03T04:30:44;6.60;;;1.73;;
9834;SDS011;4956;50.996;13.716;2023-04-03T04:34:05;4.97;;;1.23;;
9834;SDS011;4956;50.996;13.716;2023-04-03T04:37:26;5.30;;;1.77;;
9834;SDS011;4956;50.996;13.716;2023-04-03T04:40:47;3.75;;;1.60;;
9834;SDS011;4956;50.996;13.716;2023-04-03T04:44:09;3.38;;;1.48;;
9834;SDS011;4956;50.996;13.716;2023-04-03T04:47:30;6.38;;;1.80;;
9834;SDS011;4956;50.996;13.716;2023-04-03T04:50:50;7.97;;;3.13;;
9834;SDS011;4956;50.996;13.716;2023-04-03T04:54:10;7.82;;;1.90;;
9834;SDS011;4956;50.996;13.716;2023-04-03T04:57:32;5.75;;;1.63;;
9834;SDS011;4956;50.996;13.716;2023-04-03T05:01:00;5.85;;;1.83;;
9834;SDS011;4956;50.996;13.716;2023-04-03T05:04:21;4.72;;;2.08;;
9834;SDS011;4956;50.996;13.716;2023-04-03T05:07:46;5.60;;;1.98;;
9834;SDS011;4956;50.996;13.716;2023-04-03T05:11:07;5.00;;;1.90;;
9834;SDS011;4956;50.996;13.716;2023-04-03T05:14:28;5.55;;;1.75;;
9834;SDS011;4956;50.996;13.716;2023-04-03T05:17:54;6.75;;;1.90;;
9834;SDS011;4956;50.996;13.716;2023-04-03T05:21:17;7.38;;;1.58;;
9834;SDS011;4956;50.996;13.716;2023-04-03T05:24:39;7.65;;;1.73;;
9834;SDS011;4956;50.996;13.716;2023-04-03T05:28:00;10.48;;;2.13;;
9834;SDS011;4956;50.996;13.716;2023-04-03T05:31:21;6.90;;;1.67;;
9834;SDS011;4956;50.996;13.716;2023-04-03T05:34:42;5.65;;;2.00;;
9834;SDS011;4956;50.996;13.716;2023-04-03T05:38:02;5.68;;;2.08;;
9834;SDS011;4956;50.996;13.716;2023-04-03T05:41:24;6.38;;;1.83;;
9834;SDS011;4956;50.996;13.716;2023-04-03T05:44:45;7.65;;;1.83;;
9834;SDS011;4956;50.996;13.716;2023-04-03T05:48:07;8.55;;;2.20;;
9834;SDS011;4956;50.996;13.716;2023-04-03T05:51:29;8.00;;;2.15;;
9834;SDS011;4956;50.996;13.716;2023-04-03T05:54:56;5.57;;;1.98;;
9834;SDS011;4956;50.996;13.716;2023-04-03T05:58:21;5.55;;;2.22;;
9834;SDS011;4956;50.996;13.716;2023-04-03T06:01:43;7.57;;;1.77;;
9834;SDS011;4956;50.996;13.716;2023-04-03T06:05:04;7.57;;;2.22;;
9834;SDS011;4956;50.996;13.716;2023-04-03T06:08:25;7.13;;;2.08;;
9834;SDS011;4956;50.996;13.716;2023-04-03T06:11:45;10.73;;;2.42;;
9834;SDS011;4956;50.996;13.716;2023-04-03T06:15:06;6.82;;;2.47;;
9834;SDS011;4956;50.996;13.716;2023-04-03T06:18:28;7.97;;;2.40;;
9834;SDS011;4956;50.996;13.716;2023-04-03T06:21:49;8.45;;;2.38;;
9834;SDS011;4956;50.996;13.716;2023-04-03T06:25:10;6.82;;;2.38;;
9834;SDS011;4956;50.996;13.716;2023-04-03T06:28:30;8.45;;;2.53;;
9834;SDS011;4956;50.996;13.716;2023-04-03T06:31:51;7.82;;;2.42;;
9834;SDS011;4956;50.996;13.716;2023-04-03T06:35:12;6.57;;;2.25;;
9834;SDS011;4956;50.996;13.716;2023-04-03T06:38:32;5.63;;;2.20;;
9834;SDS011;4956;50.996;13.716;2023-04-03T06:41:53;6.45;;;2.40;;
9834;SDS011;4956;50.996;13.716;2023-04-03T06:45:22;8.13;;;2.38;;
9834;SDS011;4956;50.996;13.716;2023-04-03T06:48:44;6.22;;;2.35;;
9834;SDS011;4956;50.996;13.716;2023-04-03T06:52:05;6.47;;;2.33;;
9834;SDS011;4956;50.996;13.716;2023-04-03T06:55:25;6.82;;;2.20;;
9834;SDS011;4956;50.996;13.716;2023-04-03T06:58:46;8.18;;;2.33;;
9834;SDS011;4956;50.996;13.716;2023-04-03T07:02:06;5.32;;;2.28;;
9834;SDS011;4956;50.996;13.716;2023-04-03T07:05:26;8.60;;;2.60;;
9834;SDS011;4956;50.996;13.716;2023-04-03T07:08:47;5.10;;;1.98;;
9834;SDS011;4956;50.996;13.716;2023-04-03T07:12:10;6.97;;;2.22;;
9834;SDS011;4956;50.996;13.716;2023-04-03T07:15:31;5.75;;;2.10;;
9834;SDS011;4956;50.996;13.716;2023-04-03T07:18:51;5.93;;;2.17;;
9834;SDS011;4956;50.996;13.716;2023-04-03T07:22:11;5.43;;;2.35;;
9834;SDS011;4956;50.996;13.716;2023-04-03T07:25:32;10.10;;;2.70;;
9834;SDS011;4956;50.996;13.716;2023-04-03T07:28:53;4.30;;;2.67;;
9834;SDS011;4956;50.996;13.716;2023-04-03T07:32:14;7.03;;;2.30;;
9834;SDS011;4956;50.996;13.716;2023-04-03T07:35:35;9.13;;;2.03;;
9834;SDS011;4956;50.996;13.716;2023-04-03T07:38:55;6.82;;;2.30;;
9834;SDS011;4956;50.996;13.716;2023-04-03T07:42:16;5.35;;;2.05;;
9834;SDS011;4956;50.996;13.716;2023-04-03T07:45:36;8.13;;;2.70;;
9834;SDS011;4956;50.996;13.716;2023-04-03T07:48:56;6.63;;;2.22;;
9834;SDS011;4956;50.996;13.716;2023-04-03T07:52:17;7.60;;;2.28;;
9834;SDS011;4956;50.996;13.716;2023-04-03T07:55:37;4.93;;;1.90;;
9834;SDS011;4956;50.996;13.716;2023-04-03T07:59:02;5.18;;;2.05;;
9834;SDS011;4956;50.996;13.716;2023-04-03T08:02:23;8.52;;;2.20;;
9834;SDS011;4956;50.996;13.716;2023-04-03T08:05:44;3.85;;;1.80;;
9834;SDS011;4956;50.996;13.716;2023-04-03T08:09:05;5.10;;;1.92;;
9834;SDS011;4956;50.996;13.716;2023-04-03T08:12:28;6.82;;;2.25;;
9834;SDS011;4956;50.996;13.716;2023-04-03T08:15:49;4.28;;;2.28;;
9834;SDS011;4956;50.996;13.716;2023-04-03T08:19:10;5.50;;;2.53;;
9834;SDS011;4956;50.996;13.716;2023-04-03T08:22:33;5.80;;;2.22;;
9834;SDS011;4956;50.996;13.716;2023-04-03T08:25:54;4.32;;;2.00;;
9834;SDS011;4956;50.996;13.716;2023-04-03T08:29:14;8.98;;;2.50;;
9834;SDS011;4956;50.996;13.716;2023-04-03T08:32:37;4.95;;;2.30;;
9834;SDS011;4956;50.996;13.716;2023-04-03T08:35:57;5.40;;;2.30;;
9834;SDS011;4956;50.996;13.716;2023-04-03T08:39:18;6.47;;;2.10;;
9834;SDS011;4956;50.996;13.716;2023-04-03T08:46:16;8.20;;;2.40;;
9834;SDS011;4956;50.996;13.716;2023-04-03T08:49:42;6.07;;;2.13;;
9834;SDS011;4956;50.996;13.716;2023-04-03T08:53:17;4.50;;;1.80;;
9834;SDS011;4956;50.996;13.716;2023-04-03T08:56:41;9.18;;;2.17;;
9834;SDS011;4956;50.996;13.716;2023-04-03T09:00:20;7.03;;;2.00;;
9834;SDS011;4956;50.996;13.716;2023-04-03T09:03:43;5.32;;;2.13;;
9834;SDS011;4956;50.996;13.716;2023-04-03T09:07:06;5.10;;;2.10;;
9834;SDS011;4956;50.996;13.716;2023-04-03T09:10:32;3.42;;;1.90;;
9834;SDS011;4956;50.996;13.716;2023-04-03T09:14:01;4.63;;;1.80;;
9834;SDS011;4956;50.996;13.716;2023-04-03T09:17:31;4.65;;;2.03;;
9834;SDS011;4956;50.996;13.716;2023-04-03T09:21:17;4.03;;;1.83;;
9834;SDS011;4956;50.996;13.716;2023-04-03T09:24:41;4.80;;;1.75;;
9834;SDS011;4956;50.996;13.716;2023-04-03T09:28:02;5.50;;;1.80;;
9834;SDS011;4956;50.996;13.716;2023-04-03T09:31:25;5.55;;;2.20;;
9834;SDS011;4956;50.996;13.716;2023-04-03T09:34:57;6.72;;;2.00;;
9834;SDS011;4956;50.996;13.716;2023-04-03T09:38:21;5.07;;;1.77;;
9834;SDS011;4956;50.996;13.716;2023-04-03T09:41:43;5.28;;;1.75;;
9834;SDS011;4956;50.996;13.716;2023-04-03T09:45:25;6.15;;;1.50;;
9834;SDS011;4956;50.996;13.716;2023-04-03T09:48:51;4.55;;;1.52;;
9834;SDS011;4956;50.996;13.716;2023-04-03T09:52:19;3.95;;;1.60;;
9834;SDS011;4956;50.996;13.716;2023-04-03T09:55:43;4.40;;;1.52;;
9834;SDS011;4956;50.996;13.716;2023-04-03T10:05:47;6.80;;;2.85;;
9834;SDS011;4956;50.996;13.716;2023-04-03T10:09:24;6.55;;;1.50;;
9834;SDS011;4956;50.996;13.716;2023-04-03T10:12:44;2.65;;;1.25;;
9834;SDS011;4956;50.996;13.716;2023-04-03T10:16:07;7.13;;;1.50;;
9834;SDS011;4956;50.996;13.716;2023-04-03T10:23:25;3.63;;;1.08;;
9834;SDS011;4956;50.996;13.716;2023-04-03T10:26:58;2.22;;;1.23;;
9834;SDS011;4956;50.996;13.716;2023-04-03T10:30:29;4.03;;;1.05;;
9834;SDS011;4956;50.996;13.716;2023-04-03T10:37:58;2.47;;;1.00;;
9834;SDS011;4956;50.996;13.716;2023-04-03T10:44:58;6.15;;;1.23;;
9834;SDS011;4956;50.996;13.716;2023-04-03T10:48:46;3.67;;;1.00;;
9834;SDS011;4956;50.996;13.716;2023-04-03T10:52:16;3.35;;;1.08;;
9834;SDS011;4956;50.996;13.716;2023-04-03T10:59:18;4.10;;;0.95;;
9834;SDS011;4956;50.996;13.716;2023-04-03T11:06:15;1.77;;;0.75;;
9834;SDS011;4956;50.996;13.716;2023-04-03T11:09:37;2.33;;;1.10;;
9834;SDS011;4956;50.996;13.716;2023-04-03T11:13:11;2.55;;;0.90;;
9834;SDS011;4956;50.996;13.716;2023-04-03T11:16:33;2.45;;;1.05;;
9834;SDS011;4956;50.996;13.716;2023-04-03T11:24:01;1.58;;;0.70;;
9834;SDS011;4956;50.996;13.716;2023-04-03T11:27:23;4.07;;;0.73;;
9834;SDS011;4956;50.996;13.716;2023-04-03T11:30:53;2.58;;;0.90;;
9834;SDS011;4956;50.996;13.716;2023-04-03T11:38:00;4.30;;;0.90;;
9834;SDS011;4956;50.996;13.716;2023-04-03T11:41:26;3.63;;;1.05;;
9834;SDS011;4956;50.996;13.716;2023-04-03T11:44:48;3.08;;;0.93;;
9834;SDS011;4956;50.996;13.716;2023-04-03T11:51:38;2.58;;;0.90;;
9834;SDS011;4956;50.996;13.716;2023-04-03T11:54:59;8.75;;;1.10;;
9834;SDS011;4956;50.996;13.716;2023-04-03T11:58:24;3.50;;;1.02;;
9834;SDS011;4956;50.996;13.716;2023-04-03T12:01:50;3.22;;;1.42;;
9834;SDS011;4956;50.996;13.716;2023-04-03T12:05:30;2.38;;;0.98;;
9834;SDS011;4956;50.996;13.716;2023-04-03T12:08:51;3.40;;;0.90;;
9834;SDS011;4956;50.996;13.716;2023-04-03T12:15:53;3.20;;;1.17;;
9834;SDS011;4956;50.996;13.716;2023-04-03T12:22:34;2.13;;;0.93;;
9834;SDS011;4956;50.996;13.716;2023-04-03T12:25:59;5.40;;;1.08;;
9834;SDS011;4956;50.996;13.716;2023-04-03T12:29:43;3.70;;;0.90;;
9834;SDS011;4956;50.996;13.716;2023-04-03T12:36:35;7.23;;;1.00;;
9834;SDS011;4956;50.996;13.716;2023-04-03T12:40:01;1.88;;;1.08;;
9834;SDS011;4956;50.996;13.716;2023-04-03T12:43:36;4.07;;;1.20;;
9834;SDS011;4956;50.996;13.716;2023-04-03T12:50:48;4.32;;;0.95;;
9834;SDS011;4956;50.996;13.716;2023-04-03T12:54:16;4.45;;;1.33;;
9834;SDS011;4956;50.996;13.716;2023-04-03T12:57:40;6.05;;;1.15;;
9834;SDS011;4956;50.996;13.716;2023-04-03T13:01:04;2.22;;;1.05;;
9834;SDS011;4956;50.996;13.716;2023-04-03T13:04:31;3.38;;;0.90;;
9834;SDS011;4956;50.996;13.716;2023-04-03T13:07:57;2.90;;;1.20;;
9834;SDS011;4956;50.996;13.716;2023-04-03T13:11:20;3.15;;;1.10;;
9834;SDS011;4956;50.996;13.716;2023-04-03T13:14:51;2.72;;;0.98;;
9834;SDS011;4956;50.996;13.716;2023-04-03T13:18:26;2.05;;;1.10;;
9834;SDS011;4956;50.996;13.716;2023-04-03T13:21:48;2.80;;;0.90;;
9834;SDS011;4956;50.996;13.716;2023-04-03T13:25:11;5.13;;;1.17;;
9834;SDS011;4956;50.996;13.716;2023-04-03T13:28:33;3.45;;;1.20;;
9834;SDS011;4956;50.996;13.716;2023-04-03T13:31:54;4.47;;;1.02;;
9834;SDS011;4956;50.996;13.716;2023-04-03T13:39:01;4.28;;;1.00;;
9834;SDS011;4956;50.996;13.716;2023-04-03T13:42:22;3.15;;;1.08;;
9834;SDS011;4956;50.996;13.716;2023-04-03T13:46:31;2.83;;;1.00;;
9834;SDS011;4956;50.996;13.716;2023-04-03T13:49:35;2.65;;;1.30;;
9834;SDS011;4956;50.996;13.716;2023-04-03T13:53:09;5.65;;;1.25;;
9834;SDS011;4956;50.996;13.716;2023-04-03T13:56:34;2.17;;;1.00;;
9834;SDS011;4956;50.996;13.716;2023-04-03T13:59:58;1.92;;;1.02;;
9834;SDS011;4956;50.996;13.716;2023-04-03T14:03:27;3.42;;;1.17;;
9834;SDS011;4956;50.996;13.716;2023-04-03T14:06:50;2.90;;;1.17;;
9834;SDS011;4956;50.996;13.716;2023-04-03T14:10:11;3.17;;;1.10;;
9834;SDS011;4956;50.996;13.716;2023-04-03T14:13:31;1.58;;;1.00;;
9834;SDS011;4956;50.996;13.716;2023-04-03T14:16:56;2.28;;;1.08;;
9834;SDS011;4956;50.996;13.716;2023-04-03T14:20:19;4.13;;;2.13;;
9834;SDS011;4956;50.996;13.716;2023-04-03T14:23:41;2.45;;;1.00;;
9834;SDS011;4956;50.996;13.716;2023-04-03T14:27:01;2.28;;;0.93;;
9834;SDS011;4956;50.996;13.716;2023-04-03T14:30:25;4.35;;;1.30;;
9834;SDS011;4956;50.996;13.716;2023-04-03T14:33:47;3.40;;;1.17;;
9834;SDS011;4956;50.996;13.716;2023-04-03T14:37:16;2.25;;;0.98;;
9834;SDS011;4956;50.996;13.716;2023-04-03T14:40:38;5.28;;;1.52;;
9834;SDS011;4956;50.996;13.716;2023-04-03T14:43:58;3.17;;;0.95;;
9834;SDS011;4956;50.996;13.716;2023-04-03T14:47:19;3.33;;;1.10;;
9834;SDS011;4956;50.996;13.716;2023-04-03T14:50:42;3.63;;;2.10;;
9834;SDS011;4956;50.996;13.716;2023-04-03T14:57:37;1.60;;;1.00;;
9834;SDS011;4956;50.996;13.716;2023-04-03T15:00:58;4.95;;;1.40;;
9834;SDS011;4956;50.996;13.716;2023-04-03T15:04:19;3.13;;;1.20;;
9834;SDS011;4956;50.996;13.716;2023-04-03T15:07:41;2.10;;;1.10;;
9834;SDS011;4956;50.996;13.716;2023-04-03T15:11:02;3.10;;;1.20;;
9834;SDS011;4956;50.996;13.716;2023-04-03T15:14:25;3.03;;;1.00;;
9834;SDS011;4956;50.996;13.716;2023-04-03T15:17:46;1.80;;;1.00;;
9834;SDS011;4956;50.996;13.716;2023-04-03T15:21:09;2.22;;;1.10;;
9834;SDS011;4956;50.996;13.716;2023-04-03T15:24:29;2.42;;;1.05;;
9834;SDS011;4956;50.996;13.716;2023-04-03T15:27:50;4.53;;;0.80;;
9834;SDS011;4956;50.996;13.716;2023-04-03T15:31:10;1.70;;;0.90;;
9834;SDS011;4956;50.996;13.716;2023-04-03T15:34:32;3.30;;;1.20;;
9834;SDS011;4956;50.996;13.716;2023-04-03T15:37:52;4.10;;;1.23;;
9834;SDS011;4956;50.996;13.716;2023-04-03T15:41:12;3.38;;;1.00;;
9834;SDS011;4956;50.996;13.716;2023-04-03T15:44:33;3.58;;;1.10;;
9834;SDS011;4956;50.996;13.716;2023-04-03T15:47:54;3.22;;;1.27;;
9834;SDS011;4956;50.996;13.716;2023-04-03T15:51:15;2.67;;;1.00;;
9834;SDS011;4956;50.996;13.716;2023-04-03T15:54:37;1.63;;;0.93;;
9834;SDS011;4956;50.996;13.716;2023-04-03T15:57:58;2.10;;;1.10;;
9834;SDS011;4956;50.996;13.716;2023-04-03T16:01:18;2.20;;;1.08;;
9834;SDS011;4956;50.996;13.716;2023-04-03T16:04:38;5.75;;;1.27;;
9834;SDS011;4956;50.996;13.716;2023-04-03T16:07:59;1.98;;;0.80;;
9834;SDS011;4956;50.996;13.716;2023-04-03T16:11:20;1.65;;;0.75;;
9834;SDS011;4956;50.996;13.716;2023-04-03T16:18:32;2.83;;;1.13;;
9834;SDS011;4956;50.996;13.716;2023-04-03T16:21:54;4.05;;;1.13;;
9834;SDS011;4956;50.996;13.716;2023-04-03T16:25:15;2.88;;;0.75;;
9834;SDS011;4956;50.996;13.716;2023-04-03T16:28:35;2.85;;;0.88;;
9834;SDS011;4956;50.996;13.716;2023-04-03T16:31:56;4.55;;;1.40;;
9834;SDS011;4956;50.996;13.716;2023-04-03T16:35:22;3.22;;;1.02;;
9834;SDS011;4956;50.996;13.716;2023-04-03T16:38:43;1.73;;;1.00;;
9834;SDS011;4956;50.996;13.716;2023-04-03T16:42:03;3.50;;;0.90;;
9834;SDS011;4956;50.996;13.716;2023-04-03T16:45:23;4.38;;;1.17;;
9834;SDS011;4956;50.996;13.716;2023-04-03T16:48:44;2.80;;;0.98;;
9834;SDS011;4956;50.996;13.716;2023-04-03T16:52:04;2.83;;;1.10;;
9834;SDS011;4956;50.996;13.716;2023-04-03T16:55:28;3.03;;;1.30;;
9834;SDS011;4956;50.996;13.716;2023-04-03T16:58:49;2.35;;;1.10;;
9834;SDS011;4956;50.996;13.716;2023-04-03T17:02:09;2.70;;;0.90;;
9834;SDS011;4956;50.996;13.716;2023-04-03T17:05:29;2.70;;;1.10;;
9834;SDS011;4956;50.996;13.716;2023-04-03T17:08:50;3.42;;;1.13;;
9834;SDS011;4956;50.996;13.716;2023-04-03T17:12:20;4.82;;;1.08;;
9834;SDS011;4956;50.996;13.716;2023-04-03T17:15:44;1.77;;;0.95;;
9834;SDS011;4956;50.996;13.716;2023-04-03T17:19:04;2.67;;;1.00;;
9834;SDS011;4956;50.996;13.716;2023-04-03T17:22:24;1.75;;;0.85;;
9834;SDS011;4956;50.996;13.716;2023-04-03T17:25:45;3.85;;;1.10;;
9834;SDS011;4956;50.996;13.716;2023-04-03T17:29:05;4.45;;;1.15;;
9834;SDS011;4956;50.996;13.716;2023-04-03T17:32:26;3.58;;;1.17;;
9834;SDS011;4956;50.996;13.716;2023-04-03T17:35:46;3.70;;;1.10;;
9834;SDS011;4956;50.996;13.716;2023-04-03T17:39:06;2.47;;;1.30;;
9834;SDS011;4956;50.996;13.716;2023-04-03T17:42:27;1.60;;;1.08;;
9834;SDS011;4956;50.996;13.716;2023-04-03T17:45:50;2.10;;;1.27;;
9834;SDS011;4956;50.996;13.716;2023-04-03T17:49:10;5.15;;;1.33;;
9834;SDS011;4956;50.996;13.716;2023-04-03T17:52:33;4.00;;;1.33;;
9834;SDS011;4956;50.996;13.716;2023-04-03T17:55:54;3.03;;;1.08;;
9834;SDS011;4956;50.996;13.716;2023-04-03T17:59:15;3.42;;;1.15;;
9834;SDS011;4956;50.996;13.716;2023-04-03T18:02:35;1.60;;;0.98;;
9834;SDS011;4956;50.996;13.716;2023-04-03T18:05:56;3.35;;;1.33;;
9834;SDS011;4956;50.996;13.716;2023-04-03T18:09:20;2.85;;;1.23;;
9834;SDS011;4956;50.996;13.716;2023-04-03T18:12:45;4.43;;;1.23;;
9834;SDS011;4956;50.996;13.716;2023-04-03T18:16:06;3.47;;;1.25;;
9834;SDS011;4956;50.996;13.716;2023-04-03T18:19:27;3.45;;;1.17;;
9834;SDS011;4956;50.996;13.716;2023-04-03T18:22:48;2.55;;;1.05;;
9834;SDS011;4956;50.996;13.716;2023-04-03T18:26:09;2.10;;;0.90;;
9834;SDS011;4956;50.996;13.716;2023-04-03T18:29:32;2.35;;;1.25;;
9834;SDS011;4956;50.996;13.716;2023-04-03T18:32:54;5.10;;;1.40;;
9834;SDS011;4956;50.996;13.716;2023-04-03T18:36:14;4.10;;;1.63;;
9834;SDS011;4956;50.996;13.716;2023-04-03T18:39:35;3.33;;;1.55;;
9834;SDS011;4956;50.996;13.716;2023-04-03T18:42:55;3.90;;;1.58;;
9834;SDS011;4956;50.996;13.716;2023-04-03T18:46:16;2.65;;;1.40;;
9834;SDS011;4956;50.996;13.716;2023-04-03T18:49:36;2.67;;;1.35;;
9834;SDS011;4956;50.996;13.716;2023-04-03T18:52:58;2.95;;;1.40;;
9834;SDS011;4956;50.996;13.716;2023-04-03T18:59:48;4.03;;;1.52;;
9834;SDS011;4956;50.996;13.716;2023-04-03T19:03:09;3.15;;;1.90;;
9834;SDS011;4956;50.996;13.716;2023-04-03T19:06:33;3.33;;;2.10;;
9834;SDS011;4956;50.996;13.716;2023-04-03T19:09:54;3.20;;;1.92;;
9834;SDS011;4956;50.996;13.716;2023-04-03T19:13:14;4.03;;;2.13;;
9834;SDS011;4956;50.996;13.716;2023-04-03T19:16:36;2.53;;;1.85;;
9834;SDS011;4956;50.996;13.716;2023-04-03T19:19:57;3.67;;;1.70;;
9834;SDS011;4956;50.996;13.716;2023-04-03T19:23:18;4.38;;;2.10;;
9834;SDS011;4956;50.996;13.716;2023-04-03T19:26:39;4.22;;;2.03;;
9834;SDS011;4956;50.996;13.716;2023-04-03T19:30:00;3.13;;;2.17;;
9834;SDS011;4956;50.996;13.716;2023-04-03T19:33:21;4.15;;;2.15;;
9834;SDS011;4956;50.996;13.716;2023-04-03T19:36:42;3.22;;;2.10;;
9834;SDS011;4956;50.996;13.716;2023-04-03T19:40:04;4.75;;;2.03;;
9834;SDS011;4956;50.996;13.716;2023-04-03T19:43:25;6.03;;;2.13;;
9834;SDS011;4956;50.996;13.716;2023-04-03T19:46:45;3.67;;;1.98;;
9834;SDS011;4956;50.996;13.716;2023-04-03T19:50:06;3.75;;;1.90;;
9834;SDS011;4956;50.996;13.716;2023-04-03T19:53:26;3.83;;;1.95;;
9834;SDS011;4956;50.996;13.716;2023-04-03T19:56:48;3.72;;;2.17;;
9834;SDS011;4956;50.996;13.716;2023-04-03T20:00:09;5.47;;;2.17;;
9834;SDS011;4956;50.996;13.716;2023-04-03T20:03:31;5.25;;;2.00;;
9834;SDS011;4956;50.996;13.716;2023-04-03T20:06:52;4.10;;;2.10;;
9834;SDS011;4956;50.996;13.716;2023-04-03T20:10:13;6.90;;;2.13;;
9834;SDS011;4956;50.996;13.716;2023-04-03T20:13:34;5.05;;;2.22;;
9834;SDS011;4956;50.996;13.716;2023-04-03T20:16:54;6.68;;;2.00;;
9834;SDS011;4956;50.996;13.716;2023-04-03T20:20:15;4.40;;;2.00;;
9834;SDS011;4956;50.996;13.716;2023-04-03T20:23:36;3.50;;;1.88;;
9834;SDS011;4956;50.996;13.716;2023-04-03T20:26:56;5.40;;;1.98;;
9834;SDS011;4956;50.996;13.716;2023-04-03T20:30:20;4.05;;;1.83;;
9834;SDS011;4956;50.996;13.716;2023-04-03T20:33:41;4.22;;;1.90;;
9834;SDS011;4956;50.996;13.716;2023-04-03T20:37:01;5.32;;;2.08;;
9834;SDS011;4956;50.996;13.716;2023-04-03T20:40:22;5.93;;;2.33;;
9834;SDS011;4956;50.996;13.716;2023-04-03T20:43:43;6.75;;;2.10;;
9834;SDS011;4956;50.996;13.716;2023-04-03T20:47:04;4.22;;;2.40;;
9834;SDS011;4956;50.996;13.716;2023-04-03T20:50:25;5.28;;;1.73;;
9834;SDS011;4956;50.996;13.716;2023-04-03T20:53:46;3.40;;;2.30;;
9834;SDS011;4956;50.996;13.716;2023-04-03T20:57:07;5.28;;;2.13;;
9834;SDS011;4956;50.996;13.716;2023-04-03T21:00:27;3.80;;;2.17;;
9834;SDS011;4956;50.996;13.716;2023-04-03T21:03:51;4.28;;;2.22;;
9834;SDS011;4956;50.996;13.716;2023-04-03T21:19:18;4.20;;;2.10;;
9834;SDS011;4956;50.996;13.716;2023-04-03T21:22:39;4.93;;;2.42;;
9834;SDS011;4956;50.996;13.716;2023-04-03T21:26:02;4.82;;;2.40;;
9834;SDS011;4956;50.996;13.716;2023-04-03T21:29:23;6.55;;;2.05;;
9834;SDS011;4956;50.996;13.716;2023-04-03T21:32:43;4.93;;;2.13;;
9834;SDS011;4956;50.996;13.716;2023-04-03T21:36:03;3.57;;;2.37;;
9834;SDS011;4956;50.996;13.716;2023-04-03T21:39:23;6.93;;;2.40;;
9834;SDS011;4956;50.996;13.716;2023-04-03T21:42:44;5.70;;;2.30;;
9834;SDS011;4956;50.996;13.716;2023-04-03T21:46:04;5.73;;;2.53;;
9834;SDS011;4956;50.996;13.716;2023-04-03T21:49:25;4.88;;;2.65;;
9834;SDS011;4956;50.996;13.716;2023-04-03T21:52:46;5.00;;;2.40;;
9834;SDS011;4956;50.996;13.716;2023-04-03T21:56:06;4.10;;;2.50;;
9834;SDS011;4956;50.996;13.716;2023-04-03T21:59:27;7.00;;;3.15;;
9834;SDS011;4956;50.996;13.716;2023-04-03T22:02:47;4.60;;;2.20;;